sensor_id;sensor_type;location;lat;lon;timestamp;P1;durP1;ratioP1;P2;durP2;ratioP2
71734;SDS011;59577;52.122;5.406;2023-02-28T00:00:34;5.65;;;1.27;;
71734;SDS011;59577;52.122;5.406;2023-02-28T00:03:02;4.05;;;1.05;;
71734;SDS011;59577;52.122;5.406;2023-02-28T00:05:29;1.92;;;0.85;;
71734;SDS011;59577;52.122;5.406;2023-02-28T00:07:56;6.00;;;1.10;;
71734;SDS011;59577;52.122;5.406;2023-02-28T00:10:23;2.20;;;0.97;;
71734;SDS011;59577;52.122;5.406;2023-02-28T00:12:59;2.22;;;0.90;;
71734;SDS011;59577;52.122;5.406;2023-02-28T00:15:27;2.50;;;1.17;;
71734;SDS011;59577;52.122;5.406;2023-02-28T00:17:54;1.77;;;0.95;;
71734;SDS011;59577;52.122;5.406;2023-02-28T00:20:21;6.78;;;0.90;;
71734;SDS011;59577;52.122;5.406;2023-02-28T00:22:48;4.13;;;1.33;;
71734;SDS011;59577;52.122;5.406;2023-02-28T00:25:19;3.17;;;1.25;;
71734;SDS011;59577;52.122;5.406;2023-02-28T00:27:48;9.00;;;1.10;;
71734;SDS011;59577;52.122;5.406;2023-02-28T00:30:17;5.93;;;1.35;;
71734;SDS011;59577;52.122;5.406;2023-02-28T00:32:45;3.90;;;1.30;;
71734;SDS011;59577;52.122;5.406;2023-02-28T00:35:12;2.73;;;1.23;;
71734;SDS011;59577;52.122;5.406;2023-02-28T00:37:39;2.13;;;1.00;;
71734;SDS011;59577;52.122;5.406;2023-02-28T00:40:06;2.10;;;1.13;;
71734;SDS011;59577;52.122;5.406;2023-02-28T00:42:34;2.55;;;1.35;;
71734;SDS011;59577;52.122;5.406;2023-02-28T00:45:01;4.40;;;1.48;;
71734;SDS011;59577;52.122;5.406;2023-02-28T00:47:30;1.47;;;0.87;;
71734;SDS011;59577;52.122;5.406;2023-02-28T00:49:58;4.35;;;0.95;;
71734;SDS011;59577;52.122;5.406;2023-02-28T00:52:24;2.50;;;1.10;;
71734;SDS011;59577;52.122;5.406;2023-02-28T00:54:51;1.88;;;1.08;;
71734;SDS011;59577;52.122;5.406;2023-02-28T00:57:18;3.83;;;1.50;;
71734;SDS011;59577;52.122;5.406;2023-02-28T00:59:44;1.90;;;0.70;;
71734;SDS011;59577;52.122;5.406;2023-02-28T01:02:11;1.35;;;0.85;;
71734;SDS011;59577;52.122;5.406;2023-02-28T01:04:37;1.35;;;0.80;;
71734;SDS011;59577;52.122;5.406;2023-02-28T01:07:04;2.17;;;1.10;;
71734;SDS011;59577;52.122;5.406;2023-02-28T01:09:30;2.85;;;1.10;;
71734;SDS011;59577;52.122;5.406;2023-02-28T01:11:57;3.00;;;1.03;;
71734;SDS011;59577;52.122;5.406;2023-02-28T01:14:24;3.25;;;1.13;;
71734;SDS011;59577;52.122;5.406;2023-02-28T01:16:50;2.05;;;1.10;;
71734;SDS011;59577;52.122;5.406;2023-02-28T01:19:17;3.88;;;0.90;;
71734;SDS011;59577;52.122;5.406;2023-02-28T01:21:44;1.63;;;1.00;;
71734;SDS011;59577;52.122;5.406;2023-02-28T01:24:10;4.80;;;1.63;;
71734;SDS011;59577;52.122;5.406;2023-02-28T01:26:37;1.92;;;0.98;;
71734;SDS011;59577;52.122;5.406;2023-02-28T01:29:04;3.88;;;0.93;;
71734;SDS011;59577;52.122;5.406;2023-02-28T01:31:30;3.22;;;1.05;;
71734;SDS011;59577;52.122;5.406;2023-02-28T01:33:57;2.30;;;1.15;;
71734;SDS011;59577;52.122;5.406;2023-02-28T01:36:24;2.83;;;1.07;;
71734;SDS011;59577;52.122;5.406;2023-02-28T01:38:50;3.35;;;0.82;;
71734;SDS011;59577;52.122;5.406;2023-02-28T01:41:18;3.92;;;1.33;;
71734;SDS011;59577;52.122;5.406;2023-02-28T01:46:16;2.55;;;0.70;;
71734;SDS011;59577;52.122;5.406;2023-02-28T01:48:57;8.27;;;0.87;;
71734;SDS011;59577;52.122;5.406;2023-02-28T01:51:29;1.65;;;1.10;;
71734;SDS011;59577;52.122;5.406;2023-02-28T01:54:05;2.88;;;0.80;;
71734;SDS011;59577;52.122;5.406;2023-02-28T01:56:41;1.85;;;1.00;;
71734;SDS011;59577;52.122;5.406;2023-02-28T01:59:12;2.03;;;1.15;;
71734;SDS011;59577;52.122;5.406;2023-02-28T02:01:43;2.50;;;1.20;;
71734;SDS011;59577;52.122;5.406;2023-02-28T02:04:10;3.05;;;1.08;;
71734;SDS011;59577;52.122;5.406;2023-02-28T02:06:38;2.78;;;1.10;;
71734;SDS011;59577;52.122;5.406;2023-02-28T02:09:08;2.17;;;0.95;;
71734;SDS011;59577;52.122;5.406;2023-02-28T02:11:34;3.30;;;1.00;;
71734;SDS011;59577;52.122;5.406;2023-02-28T02:35:55;2.30;;;1.05;;
71734;SDS011;59577;52.122;5.406;2023-02-28T02:38:38;3.28;;;0.55;;
71734;SDS011;59577;52.122;5.406;2023-02-28T02:41:20;2.77;;;1.07;;
71734;SDS011;59577;52.122;5.406;2023-02-28T02:43:53;4.30;;;1.55;;
71734;SDS011;59577;52.122;5.406;2023-02-28T02:46:43;2.63;;;1.30;;
71734;SDS011;59577;52.122;5.406;2023-02-28T02:49:13;1.67;;;1.23;;
71734;SDS011;59577;52.122;5.406;2023-02-28T02:51:46;3.55;;;1.40;;
71734;SDS011;59577;52.122;5.406;2023-02-28T02:56:45;2.65;;;1.35;;
71734;SDS011;59577;52.122;5.406;2023-02-28T02:59:15;5.85;;;1.60;;
71734;SDS011;59577;52.122;5.406;2023-02-28T03:01:55;3.17;;;1.35;;
71734;SDS011;59577;52.122;5.406;2023-02-28T03:04:24;1.73;;;1.05;;
71734;SDS011;59577;52.122;5.406;2023-02-28T03:06:54;3.73;;;0.93;;
71734;SDS011;59577;52.122;5.406;2023-02-28T03:09:22;3.72;;;1.20;;
71734;SDS011;59577;52.122;5.406;2023-02-28T03:11:49;2.72;;;1.50;;
71734;SDS011;59577;52.122;5.406;2023-02-28T03:14:33;4.53;;;1.40;;
71734;SDS011;59577;52.122;5.406;2023-02-28T03:19:56;5.53;;;1.20;;
71734;SDS011;59577;52.122;5.406;2023-02-28T03:22:52;5.03;;;1.75;;
71734;SDS011;59577;52.122;5.406;2023-02-28T03:25:37;2.92;;;1.15;;
71734;SDS011;59577;52.122;5.406;2023-02-28T03:28:31;3.08;;;1.20;;
71734;SDS011;59577;52.122;5.406;2023-02-28T03:31:19;7.53;;;1.90;;
71734;SDS011;59577;52.122;5.406;2023-02-28T03:33:49;2.47;;;1.03;;
71734;SDS011;59577;52.122;5.406;2023-02-28T03:36:25;2.17;;;1.15;;
71734;SDS011;59577;52.122;5.406;2023-02-28T03:38:58;5.40;;;1.65;;
71734;SDS011;59577;52.122;5.406;2023-02-28T03:44:23;3.60;;;1.40;;
71734;SDS011;59577;52.122;5.406;2023-02-28T03:47:00;4.07;;;1.43;;
71734;SDS011;59577;52.122;5.406;2023-02-28T03:49:32;3.60;;;1.42;;
71734;SDS011;59577;52.122;5.406;2023-02-28T03:52:06;7.63;;;1.85;;
71734;SDS011;59577;52.122;5.406;2023-02-28T03:54:35;5.65;;;2.05;;
71734;SDS011;59577;52.122;5.406;2023-02-28T04:00:24;3.27;;;1.43;;
71734;SDS011;59577;52.122;5.406;2023-02-28T04:02:52;3.30;;;1.42;;
71734;SDS011;59577;52.122;5.406;2023-02-28T04:05:20;5.85;;;1.65;;
71734;SDS011;59577;52.122;5.406;2023-02-28T04:07:48;1.85;;;1.23;;
71734;SDS011;59577;52.122;5.406;2023-02-28T04:10:15;7.15;;;1.77;;
71734;SDS011;59577;52.122;5.406;2023-02-28T04:12:42;2.70;;;1.50;;
71734;SDS011;59577;52.122;5.406;2023-02-28T04:15:09;2.22;;;1.60;;
71734;SDS011;59577;52.122;5.406;2023-02-28T04:17:37;3.42;;;1.50;;
71734;SDS011;59577;52.122;5.406;2023-02-28T04:20:04;3.80;;;1.23;;
71734;SDS011;59577;52.122;5.406;2023-02-28T04:22:35;2.67;;;0.90;;
71734;SDS011;59577;52.122;5.406;2023-02-28T04:25:03;3.13;;;0.93;;
71734;SDS011;59577;52.122;5.406;2023-02-28T04:27:32;4.75;;;0.82;;
71734;SDS011;59577;52.122;5.406;2023-02-28T04:29:58;2.10;;;1.02;;
71734;SDS011;59577;52.122;5.406;2023-02-28T04:32:25;2.83;;;0.85;;
71734;SDS011;59577;52.122;5.406;2023-02-28T04:34:51;1.58;;;0.88;;
71734;SDS011;59577;52.122;5.406;2023-02-28T04:37:18;3.27;;;1.30;;
71734;SDS011;59577;52.122;5.406;2023-02-28T04:39:44;3.20;;;1.20;;
71734;SDS011;59577;52.122;5.406;2023-02-28T04:42:11;6.70;;;1.42;;
71734;SDS011;59577;52.122;5.406;2023-02-28T04:44:38;4.60;;;1.58;;
71734;SDS011;59577;52.122;5.406;2023-02-28T04:47:05;5.28;;;1.25;;
71734;SDS011;59577;52.122;5.406;2023-02-28T04:49:31;2.13;;;1.20;;
71734;SDS011;59577;52.122;5.406;2023-02-28T04:51:58;4.28;;;1.33;;
71734;SDS011;59577;52.122;5.406;2023-02-28T04:54:24;1.45;;;0.88;;
71734;SDS011;59577;52.122;5.406;2023-02-28T04:56:51;3.33;;;1.00;;
71734;SDS011;59577;52.122;5.406;2023-02-28T04:59:17;1.95;;;1.13;;
71734;SDS011;59577;52.122;5.406;2023-02-28T05:01:47;2.80;;;1.33;;
71734;SDS011;59577;52.122;5.406;2023-02-28T05:04:14;2.53;;;1.30;;
71734;SDS011;59577;52.122;5.406;2023-02-28T05:06:41;1.58;;;0.95;;
71734;SDS011;59577;52.122;5.406;2023-02-28T05:09:07;3.35;;;1.05;;
71734;SDS011;59577;52.122;5.406;2023-02-28T05:11:34;3.22;;;1.65;;
71734;SDS011;59577;52.122;5.406;2023-02-28T05:14:06;3.17;;;1.20;;
71734;SDS011;59577;52.122;5.406;2023-02-28T05:16:36;2.60;;;1.10;;
71734;SDS011;59577;52.122;5.406;2023-02-28T05:19:03;1.88;;;1.17;;
71734;SDS011;59577;52.122;5.406;2023-02-28T05:21:31;4.07;;;2.13;;
71734;SDS011;59577;52.122;5.406;2023-02-28T05:24:00;1.65;;;0.98;;
71734;SDS011;59577;52.122;5.406;2023-02-28T05:26:29;1.97;;;1.50;;
71734;SDS011;59577;52.122;5.406;2023-02-28T05:28:56;2.17;;;1.20;;
71734;SDS011;59577;52.122;5.406;2023-02-28T05:31:23;1.75;;;1.00;;
71734;SDS011;59577;52.122;5.406;2023-02-28T05:33:50;1.88;;;0.90;;
71734;SDS011;59577;52.122;5.406;2023-02-28T05:36:17;3.70;;;1.10;;
71734;SDS011;59577;52.122;5.406;2023-02-28T05:38:45;2.17;;;1.20;;
71734;SDS011;59577;52.122;5.406;2023-02-28T05:41:13;3.78;;;0.98;;
71734;SDS011;59577;52.122;5.406;2023-02-28T05:43:40;3.60;;;1.13;;
71734;SDS011;59577;52.122;5.406;2023-02-28T05:46:07;1.67;;;1.13;;
71734;SDS011;59577;52.122;5.406;2023-02-28T05:48:36;3.45;;;1.20;;
71734;SDS011;59577;52.122;5.406;2023-02-28T05:51:04;1.73;;;1.00;;
71734;SDS011;59577;52.122;5.406;2023-02-28T05:53:32;1.58;;;1.08;;
71734;SDS011;59577;52.122;5.406;2023-02-28T05:55:58;2.22;;;0.88;;
71734;SDS011;59577;52.122;5.406;2023-02-28T05:58:25;3.47;;;1.00;;
71734;SDS011;59577;52.122;5.406;2023-02-28T06:00:57;2.92;;;0.75;;
71734;SDS011;59577;52.122;5.406;2023-02-28T06:03:27;1.67;;;1.10;;
71734;SDS011;59577;52.122;5.406;2023-02-28T06:05:54;3.65;;;0.82;;
71734;SDS011;59577;52.122;5.406;2023-02-28T06:08:20;1.60;;;0.90;;
71734;SDS011;59577;52.122;5.406;2023-02-28T06:10:47;2.10;;;0.80;;
71734;SDS011;59577;52.122;5.406;2023-02-28T06:13:13;2.47;;;1.13;;
71734;SDS011;59577;52.122;5.406;2023-02-28T06:15:40;3.73;;;1.10;;
71734;SDS011;59577;52.122;5.406;2023-02-28T06:18:06;2.03;;;1.30;;
71734;SDS011;59577;52.122;5.406;2023-02-28T06:20:33;2.50;;;1.27;;
71734;SDS011;59577;52.122;5.406;2023-02-28T06:23:00;2.45;;;1.15;;
71734;SDS011;59577;52.122;5.406;2023-02-28T06:25:27;4.15;;;1.50;;
71734;SDS011;59577;52.122;5.406;2023-02-28T06:27:54;3.17;;;0.90;;
71734;SDS011;59577;52.122;5.406;2023-02-28T06:30:21;4.70;;;1.00;;
71734;SDS011;59577;52.122;5.406;2023-02-28T06:32:53;1.67;;;1.15;;
71734;SDS011;59577;52.122;5.406;2023-02-28T06:35:21;1.75;;;1.10;;
71734;SDS011;59577;52.122;5.406;2023-02-28T06:37:48;3.60;;;1.00;;
71734;SDS011;59577;52.122;5.406;2023-02-28T06:40:15;2.10;;;1.63;;
71734;SDS011;59577;52.122;5.406;2023-02-28T06:42:41;1.70;;;1.05;;
71734;SDS011;59577;52.122;5.406;2023-02-28T06:45:08;3.55;;;1.25;;
71734;SDS011;59577;52.122;5.406;2023-02-28T06:47:37;5.68;;;1.45;;
71734;SDS011;59577;52.122;5.406;2023-02-28T06:50:05;3.33;;;1.50;;
71734;SDS011;59577;52.122;5.406;2023-02-28T06:52:33;4.10;;;1.30;;
71734;SDS011;59577;52.122;5.406;2023-02-28T06:55:03;2.10;;;1.27;;
71734;SDS011;59577;52.122;5.406;2023-02-28T06:57:34;2.03;;;1.15;;
71734;SDS011;59577;52.122;5.406;2023-02-28T07:00:06;2.97;;;1.30;;
71734;SDS011;59577;52.122;5.406;2023-02-28T07:02:35;1.15;;;0.80;;
71734;SDS011;59577;52.122;5.406;2023-02-28T07:05:02;2.07;;;1.17;;
71734;SDS011;59577;52.122;5.406;2023-02-28T07:07:29;4.38;;;1.63;;
71734;SDS011;59577;52.122;5.406;2023-02-28T07:09:56;1.75;;;1.23;;
71734;SDS011;59577;52.122;5.406;2023-02-28T07:12:22;5.47;;;1.23;;
71734;SDS011;59577;52.122;5.406;2023-02-28T07:14:49;2.05;;;1.33;;
71734;SDS011;59577;52.122;5.406;2023-02-28T07:17:15;4.30;;;1.57;;
71734;SDS011;59577;52.122;5.406;2023-02-28T07:19:42;11.45;;;1.65;;
71734;SDS011;59577;52.122;5.406;2023-02-28T07:22:09;6.10;;;1.25;;
71734;SDS011;59577;52.122;5.406;2023-02-28T07:24:35;2.38;;;1.30;;
71734;SDS011;59577;52.122;5.406;2023-02-28T07:27:02;3.33;;;1.52;;
71734;SDS011;59577;52.122;5.406;2023-02-28T07:29:29;1.97;;;1.37;;
71734;SDS011;59577;52.122;5.406;2023-02-28T07:31:55;2.50;;;1.52;;
71734;SDS011;59577;52.122;5.406;2023-02-28T07:34:22;2.72;;;1.30;;
71734;SDS011;59577;52.122;5.406;2023-02-28T07:36:49;3.45;;;1.77;;
71734;SDS011;59577;52.122;5.406;2023-02-28T07:39:20;3.00;;;1.35;;
71734;SDS011;59577;52.122;5.406;2023-02-28T07:41:47;3.77;;;1.30;;
71734;SDS011;59577;52.122;5.406;2023-02-28T07:44:14;5.13;;;1.92;;
71734;SDS011;59577;52.122;5.406;2023-02-28T07:46:41;3.17;;;1.77;;
71734;SDS011;59577;52.122;5.406;2023-02-28T07:49:07;2.55;;;1.60;;
71734;SDS011;59577;52.122;5.406;2023-02-28T07:51:34;3.30;;;1.42;;
71734;SDS011;59577;52.122;5.406;2023-02-28T07:54:01;2.50;;;1.20;;
71734;SDS011;59577;52.122;5.406;2023-02-28T07:56:27;3.85;;;1.50;;
71734;SDS011;59577;52.122;5.406;2023-02-28T07:58:54;2.65;;;1.75;;
71734;SDS011;59577;52.122;5.406;2023-02-28T08:01:21;2.35;;;1.73;;
71734;SDS011;59577;52.122;5.406;2023-02-28T08:03:47;3.03;;;1.42;;
71734;SDS011;59577;52.122;5.406;2023-02-28T08:06:15;2.53;;;1.30;;
71734;SDS011;59577;52.122;5.406;2023-02-28T08:08:44;2.28;;;1.30;;
71734;SDS011;59577;52.122;5.406;2023-02-28T08:11:14;2.35;;;1.13;;
71734;SDS011;59577;52.122;5.406;2023-02-28T08:13:41;3.63;;;1.52;;
71734;SDS011;59577;52.122;5.406;2023-02-28T08:16:10;2.33;;;1.58;;
71734;SDS011;59577;52.122;5.406;2023-02-28T08:18:38;3.70;;;1.63;;
71734;SDS011;59577;52.122;5.406;2023-02-28T08:21:05;2.25;;;1.90;;
71734;SDS011;59577;52.122;5.406;2023-02-28T08:23:33;4.53;;;1.80;;
71734;SDS011;59577;52.122;5.406;2023-02-28T08:25:59;3.20;;;1.80;;
71734;SDS011;59577;52.122;5.406;2023-02-28T08:28:26;2.25;;;1.63;;
71734;SDS011;59577;52.122;5.406;2023-02-28T08:30:53;2.77;;;1.83;;
71734;SDS011;59577;52.122;5.406;2023-02-28T08:33:20;2.72;;;1.70;;
71734;SDS011;59577;52.122;5.406;2023-02-28T08:35:47;2.15;;;1.63;;
71734;SDS011;59577;52.122;5.406;2023-02-28T08:38:13;3.33;;;1.73;;
71734;SDS011;59577;52.122;5.406;2023-02-28T08:40:40;5.55;;;1.90;;
71734;SDS011;59577;52.122;5.406;2023-02-28T08:43:06;3.63;;;1.80;;
71734;SDS011;59577;52.122;5.406;2023-02-28T08:45:33;4.10;;;1.70;;
71734;SDS011;59577;52.122;5.406;2023-02-28T08:48:00;2.88;;;1.85;;
71734;SDS011;59577;52.122;5.406;2023-02-28T08:50:26;2.78;;;1.80;;
71734;SDS011;59577;52.122;5.406;2023-02-28T08:52:53;3.65;;;1.80;;
71734;SDS011;59577;52.122;5.406;2023-02-28T08:55:20;2.73;;;1.80;;
71734;SDS011;59577;52.122;5.406;2023-02-28T08:57:46;2.15;;;1.30;;
71734;SDS011;59577;52.122;5.406;2023-02-28T09:00:13;4.32;;;1.33;;
71734;SDS011;59577;52.122;5.406;2023-02-28T09:02:40;2.60;;;1.67;;
71734;SDS011;59577;52.122;5.406;2023-02-28T09:05:09;5.30;;;1.63;;
71734;SDS011;59577;52.122;5.406;2023-02-28T09:07:35;3.43;;;1.30;;
71734;SDS011;59577;52.122;5.406;2023-02-28T09:10:02;3.40;;;1.50;;
71734;SDS011;59577;52.122;5.406;2023-02-28T09:12:31;3.67;;;1.30;;
71734;SDS011;59577;52.122;5.406;2023-02-28T09:15:00;3.22;;;1.15;;
71734;SDS011;59577;52.122;5.406;2023-02-28T09:17:27;3.03;;;0.88;;
71734;SDS011;59577;52.122;5.406;2023-02-28T09:19:56;2.67;;;0.73;;
71734;SDS011;59577;52.122;5.406;2023-02-28T09:22:23;2.45;;;0.98;;
71734;SDS011;59577;52.122;5.406;2023-02-28T09:24:49;1.90;;;1.00;;
71734;SDS011;59577;52.122;5.406;2023-02-28T09:27:16;2.05;;;0.80;;
71734;SDS011;59577;52.122;5.406;2023-02-28T09:29:42;1.30;;;0.60;;
71734;SDS011;59577;52.122;5.406;2023-02-28T09:32:09;1.27;;;0.63;;
71734;SDS011;59577;52.122;5.406;2023-02-28T09:34:35;3.05;;;0.60;;
71734;SDS011;59577;52.122;5.406;2023-02-28T09:37:03;1.85;;;0.60;;
71734;SDS011;59577;52.122;5.406;2023-02-28T09:39:29;2.40;;;0.60;;
71734;SDS011;59577;52.122;5.406;2023-02-28T09:41:56;1.48;;;0.60;;
71734;SDS011;59577;52.122;5.406;2023-02-28T09:47:46;1.38;;;0.50;;
71734;SDS011;59577;52.122;5.406;2023-02-28T09:50:08;1.60;;;0.50;;
71734;SDS011;59577;52.122;5.406;2023-02-28T09:52:44;1.13;;;0.40;;
71734;SDS011;59577;52.122;5.406;2023-02-28T09:55:22;2.15;;;0.60;;
71734;SDS011;59577;52.122;5.406;2023-02-28T09:57:57;1.13;;;0.50;;
71734;SDS011;59577;52.122;5.406;2023-02-28T10:00:30;0.60;;;0.40;;
71734;SDS011;59577;52.122;5.406;2023-02-28T10:05:37;1.75;;;0.75;;
71734;SDS011;59577;52.122;5.406;2023-02-28T10:08:16;1.45;;;0.40;;
71734;SDS011;59577;52.122;5.406;2023-02-28T10:10:51;0.90;;;0.40;;
71734;SDS011;59577;52.122;5.406;2023-02-28T10:19:04;1.85;;;0.50;;
71734;SDS011;59577;52.122;5.406;2023-02-28T10:21:38;0.82;;;0.40;;
71734;SDS011;59577;52.122;5.406;2023-02-28T10:26:56;0.77;;;0.50;;
71734;SDS011;59577;52.122;5.406;2023-02-28T10:29:27;0.80;;;0.50;;
71734;SDS011;59577;52.122;5.406;2023-02-28T10:31:58;1.52;;;0.60;;
71734;SDS011;59577;52.122;5.406;2023-02-28T10:34:28;0.95;;;0.60;;
71734;SDS011;59577;52.122;5.406;2023-02-28T10:36:54;1.10;;;0.60;;
71734;SDS011;59577;52.122;5.406;2023-02-28T10:39:35;1.35;;;0.60;;
71734;SDS011;59577;52.122;5.406;2023-02-28T10:42:19;2.42;;;0.60;;
71734;SDS011;59577;52.122;5.406;2023-02-28T10:44:46;1.65;;;0.50;;
71734;SDS011;59577;52.122;5.406;2023-02-28T10:47:14;0.82;;;0.40;;
71734;SDS011;59577;52.122;5.406;2023-02-28T10:49:47;1.00;;;0.50;;
71734;SDS011;59577;52.122;5.406;2023-02-28T10:52:31;1.00;;;0.40;;
71734;SDS011;59577;52.122;5.406;2023-02-28T10:55:22;1.30;;;0.52;;
71734;SDS011;59577;52.122;5.406;2023-02-28T10:57:51;1.27;;;0.40;;
71734;SDS011;59577;52.122;5.406;2023-02-28T11:00:23;1.20;;;0.60;;
71734;SDS011;59577;52.122;5.406;2023-02-28T11:02:51;0.63;;;0.30;;
71734;SDS011;59577;52.122;5.406;2023-02-28T11:05:31;0.77;;;0.30;;
71734;SDS011;59577;52.122;5.406;2023-02-28T11:08:06;1.08;;;0.50;;
71734;SDS011;59577;52.122;5.406;2023-02-28T11:10:43;1.70;;;0.55;;
71734;SDS011;59577;52.122;5.406;2023-02-28T11:13:19;1.52;;;0.50;;
71734;SDS011;59577;52.122;5.406;2023-02-28T11:15:51;1.03;;;0.53;;
71734;SDS011;59577;52.122;5.406;2023-02-28T11:21:02;1.05;;;0.40;;
71734;SDS011;59577;52.122;5.406;2023-02-28T11:23:30;1.25;;;0.45;;
71734;SDS011;59577;52.122;5.406;2023-02-28T11:26:03;1.13;;;0.50;;
71734;SDS011;59577;52.122;5.406;2023-02-28T11:28:38;2.37;;;0.60;;
71734;SDS011;59577;52.122;5.406;2023-02-28T11:33:46;0.70;;;0.43;;
71734;SDS011;59577;52.122;5.406;2023-02-28T11:36:23;0.63;;;0.40;;
71734;SDS011;59577;52.122;5.406;2023-02-28T11:38:53;2.15;;;0.70;;
71734;SDS011;59577;52.122;5.406;2023-02-28T11:44:08;1.40;;;0.50;;
71734;SDS011;59577;52.122;5.406;2023-02-28T11:46:56;1.23;;;0.47;;
71734;SDS011;59577;52.122;5.406;2023-02-28T11:49:35;1.95;;;0.70;;
71734;SDS011;59577;52.122;5.406;2023-02-28T11:55:06;0.93;;;0.40;;
71734;SDS011;59577;52.122;5.406;2023-02-28T11:57:47;0.82;;;0.50;;
71734;SDS011;59577;52.122;5.406;2023-02-28T12:05:55;1.02;;;0.50;;
71734;SDS011;59577;52.122;5.406;2023-02-28T12:17:22;0.82;;;0.43;;
71734;SDS011;59577;52.122;5.406;2023-02-28T12:22:55;1.17;;;0.50;;
71734;SDS011;59577;52.122;5.406;2023-02-28T12:28:17;0.85;;;0.50;;
71734;SDS011;59577;52.122;5.406;2023-02-28T12:33:33;2.92;;;0.63;;
71734;SDS011;59577;52.122;5.406;2023-02-28T12:36:09;1.53;;;0.50;;
71734;SDS011;59577;52.122;5.406;2023-02-28T12:38:43;0.77;;;0.45;;
71734;SDS011;59577;52.122;5.406;2023-02-28T12:41:17;0.98;;;0.57;;
71734;SDS011;59577;52.122;5.406;2023-02-28T12:43:51;1.20;;;0.80;;
71734;SDS011;59577;52.122;5.406;2023-02-28T12:46:32;1.33;;;0.50;;
71734;SDS011;59577;52.122;5.406;2023-02-28T12:49:08;1.40;;;0.60;;
71734;SDS011;59577;52.122;5.406;2023-02-28T12:51:39;1.38;;;0.73;;
71734;SDS011;59577;52.122;5.406;2023-02-28T12:59:27;4.50;;;1.10;;
71734;SDS011;59577;52.122;5.406;2023-02-28T13:04:52;1.13;;;0.40;;
71734;SDS011;59577;52.122;5.406;2023-02-28T13:10:39;0.95;;;0.57;;
71734;SDS011;59577;52.122;5.406;2023-02-28T13:13:12;2.20;;;0.63;;
71734;SDS011;59577;52.122;5.406;2023-02-28T13:15:56;1.17;;;0.40;;
71734;SDS011;59577;52.122;5.406;2023-02-28T13:18:31;0.80;;;0.45;;
71734;SDS011;59577;52.122;5.406;2023-02-28T13:21:07;1.25;;;0.50;;
71734;SDS011;59577;52.122;5.406;2023-02-28T13:26:07;1.20;;;0.50;;
71734;SDS011;59577;52.122;5.406;2023-02-28T13:31:21;1.23;;;0.50;;
71734;SDS011;59577;52.122;5.406;2023-02-28T13:38:54;1.90;;;0.50;;
71734;SDS011;59577;52.122;5.406;2023-02-28T13:49:25;0.82;;;0.50;;
71734;SDS011;59577;52.122;5.406;2023-02-28T13:57:58;1.25;;;0.60;;
71734;SDS011;59577;52.122;5.406;2023-02-28T14:06:09;2.42;;;0.73;;
71734;SDS011;59577;52.122;5.406;2023-02-28T14:11:52;1.08;;;0.50;;
71734;SDS011;59577;52.122;5.406;2023-02-28T14:17:22;2.53;;;0.90;;
71734;SDS011;59577;52.122;5.406;2023-02-28T14:19:47;1.40;;;0.80;;
71734;SDS011;59577;52.122;5.406;2023-02-28T14:25:22;1.45;;;0.93;;
71734;SDS011;59577;52.122;5.406;2023-02-28T14:30:57;1.58;;;0.60;;
71734;SDS011;59577;52.122;5.406;2023-02-28T14:33:46;1.95;;;0.60;;
71734;SDS011;59577;52.122;5.406;2023-02-28T14:36:32;2.50;;;0.73;;
71734;SDS011;59577;52.122;5.406;2023-02-28T14:39:20;1.02;;;0.70;;
71734;SDS011;59577;52.122;5.406;2023-02-28T14:41:48;1.67;;;0.70;;
71734;SDS011;59577;52.122;5.406;2023-02-28T14:44:20;2.88;;;1.08;;
71734;SDS011;59577;52.122;5.406;2023-02-28T14:47:01;0.82;;;0.52;;
71734;SDS011;59577;52.122;5.406;2023-02-28T14:49:51;1.10;;;0.63;;
71734;SDS011;59577;52.122;5.406;2023-02-28T14:52:22;1.35;;;0.70;;
71734;SDS011;59577;52.122;5.406;2023-02-28T14:54:57;3.22;;;0.70;;
71734;SDS011;59577;52.122;5.406;2023-02-28T14:57:28;0.90;;;0.60;;
71734;SDS011;59577;52.122;5.406;2023-02-28T15:02:47;1.37;;;0.80;;
71734;SDS011;59577;52.122;5.406;2023-02-28T15:07:44;1.60;;;0.70;;
71734;SDS011;59577;52.122;5.406;2023-02-28T15:15:19;1.57;;;0.70;;
71734;SDS011;59577;52.122;5.406;2023-02-28T15:18:01;2.97;;;0.77;;
71734;SDS011;59577;52.122;5.406;2023-02-28T15:20:31;1.23;;;0.70;;
71734;SDS011;59577;52.122;5.406;2023-02-28T15:22:59;1.73;;;0.50;;
71734;SDS011;59577;52.122;5.406;2023-02-28T15:25:26;1.50;;;0.65;;
71734;SDS011;59577;52.122;5.406;2023-02-28T15:27:53;2.43;;;0.70;;
71734;SDS011;59577;52.122;5.406;2023-02-28T15:35:39;3.65;;;0.80;;
71734;SDS011;59577;52.122;5.406;2023-02-28T15:38:17;1.73;;;0.60;;
71734;SDS011;59577;52.122;5.406;2023-02-28T15:40:53;1.60;;;0.70;;
71734;SDS011;59577;52.122;5.406;2023-02-28T15:48:28;2.17;;;0.50;;
71734;SDS011;59577;52.122;5.406;2023-02-28T15:54:00;2.00;;;0.50;;
71734;SDS011;59577;52.122;5.406;2023-02-28T15:59:00;1.20;;;0.52;;
71734;SDS011;59577;52.122;5.406;2023-02-28T16:01:33;1.30;;;0.57;;
71734;SDS011;59577;52.122;5.406;2023-02-28T16:04:01;1.50;;;0.82;;
71734;SDS011;59577;52.122;5.406;2023-02-28T16:06:32;3.80;;;0.70;;
71734;SDS011;59577;52.122;5.406;2023-02-28T16:09:00;0.60;;;0.40;;
71734;SDS011;59577;52.122;5.406;2023-02-28T16:11:28;1.45;;;0.80;;
71734;SDS011;59577;52.122;5.406;2023-02-28T16:13:56;1.55;;;0.47;;
71734;SDS011;59577;52.122;5.406;2023-02-28T16:16:24;0.90;;;0.50;;
71734;SDS011;59577;52.122;5.406;2023-02-28T16:18:52;1.00;;;0.50;;
71734;SDS011;59577;52.122;5.406;2023-02-28T16:21:19;1.20;;;0.57;;
71734;SDS011;59577;52.122;5.406;2023-02-28T16:23:45;1.25;;;0.70;;
71734;SDS011;59577;52.122;5.406;2023-02-28T16:26:16;1.98;;;0.70;;
71734;SDS011;59577;52.122;5.406;2023-02-28T16:28:47;1.30;;;0.65;;
71734;SDS011;59577;52.122;5.406;2023-02-28T16:31:14;1.93;;;0.60;;
71734;SDS011;59577;52.122;5.406;2023-02-28T16:33:43;1.60;;;0.68;;
71734;SDS011;59577;52.122;5.406;2023-02-28T16:36:15;1.50;;;0.63;;
71734;SDS011;59577;52.122;5.406;2023-02-28T16:38:43;3.15;;;0.80;;
71734;SDS011;59577;52.122;5.406;2023-02-28T16:41:11;0.90;;;0.52;;
71734;SDS011;59577;52.122;5.406;2023-02-28T16:43:43;4.33;;;0.80;;
71734;SDS011;59577;52.122;5.406;2023-02-28T16:46:11;0.90;;;0.50;;
71734;SDS011;59577;52.122;5.406;2023-02-28T16:48:39;3.75;;;0.90;;
71734;SDS011;59577;52.122;5.406;2023-02-28T16:51:13;1.33;;;0.82;;
71734;SDS011;59577;52.122;5.406;2023-02-28T16:53:42;1.95;;;0.98;;
71734;SDS011;59577;52.122;5.406;2023-02-28T16:56:19;1.50;;;0.73;;
71734;SDS011;59577;52.122;5.406;2023-02-28T16:58:48;0.93;;;0.57;;
71734;SDS011;59577;52.122;5.406;2023-02-28T17:01:15;2.28;;;1.15;;
71734;SDS011;59577;52.122;5.406;2023-02-28T17:03:48;2.55;;;1.08;;
71734;SDS011;59577;52.122;5.406;2023-02-28T17:06:19;1.25;;;0.70;;
71734;SDS011;59577;52.122;5.406;2023-02-28T17:08:49;3.47;;;1.00;;
71734;SDS011;59577;52.122;5.406;2023-02-28T17:11:16;2.30;;;0.90;;
71734;SDS011;59577;52.122;5.406;2023-02-28T17:13:43;3.45;;;1.02;;
71734;SDS011;59577;52.122;5.406;2023-02-28T17:16:22;1.50;;;0.85;;
71734;SDS011;59577;52.122;5.406;2023-02-28T17:18:55;2.30;;;0.98;;
71734;SDS011;59577;52.122;5.406;2023-02-28T17:21:24;4.93;;;1.40;;
71734;SDS011;59577;52.122;5.406;2023-02-28T17:23:51;7.25;;;1.63;;
71734;SDS011;59577;52.122;5.406;2023-02-28T17:26:18;2.38;;;1.30;;
71734;SDS011;59577;52.122;5.406;2023-02-28T17:28:49;2.22;;;0.98;;
71734;SDS011;59577;52.122;5.406;2023-02-28T17:31:17;2.53;;;1.13;;
71734;SDS011;59577;52.122;5.406;2023-02-28T17:33:43;1.83;;;1.00;;
71734;SDS011;59577;52.122;5.406;2023-02-28T17:36:13;3.92;;;1.40;;
71734;SDS011;59577;52.122;5.406;2023-02-28T17:38:41;2.70;;;1.00;;
71734;SDS011;59577;52.122;5.406;2023-02-28T17:41:09;2.88;;;1.27;;
71734;SDS011;59577;52.122;5.406;2023-02-28T17:43:37;1.92;;;1.30;;
71734;SDS011;59577;52.122;5.406;2023-02-28T17:46:03;2.57;;;1.70;;
71734;SDS011;59577;52.122;5.406;2023-02-28T17:48:34;3.50;;;1.10;;